createdAt,value
2018-05-10T00:01:22.184Z,39.10
2018-05-10T00:03:49.674Z,38.53
2018-05-10T00:06:17.165Z,35.40
2018-05-10T00:08:44.633Z,35.33
2018-05-10T00:11:12.104Z,38.47
2018-05-10T00:13:39.607Z,35.70
2018-05-10T00:16:07.077Z,37.47
2018-05-10T00:18:34.581Z,38.63
2018-05-10T00:21:02.821Z,42.50
2018-05-10T00:23:30.323Z,40.77
2018-05-10T00:25:58.556Z,38.00
2018-05-10T00:28:26.056Z,40.27
2018-05-10T00:30:54.322Z,40.10
2018-05-10T00:33:22.561Z,37.23
2018-05-10T00:35:50.045Z,42.63
2018-05-10T00:38:17.516Z,40.73
2018-05-10T00:40:45.773Z,38.50
2018-05-10T00:43:13.245Z,39.23
2018-05-10T00:45:41.527Z,37.47
2018-05-10T00:48:09.013Z,39.20
2018-05-10T00:50:36.493Z,37.80
2018-05-10T00:53:03.988Z,40.43
2018-05-10T00:55:32.233Z,39.67
2018-05-10T00:57:59.729Z,36.70
2018-05-10T01:00:27.216Z,37.27
2018-05-10T01:02:54.894Z,33.60
2018-05-10T01:05:22.361Z,37.67
2018-05-10T01:07:49.832Z,32.97
2018-05-10T01:10:17.325Z,36.33
2018-05-10T01:12:44.837Z,32.83
2018-05-10T01:15:12.328Z,32.83
2018-05-10T01:17:39.806Z,32.77
2018-05-10T01:20:07.292Z,34.50
2018-05-10T01:22:34.781Z,29.07
2018-05-10T01:25:03.021Z,33.73
2018-05-10T01:27:30.508Z,27.70
2018-05-10T01:29:58.824Z,27.87
2018-05-10T01:32:26.637Z,27.47
2018-05-10T01:35:05.932Z,26.47
2018-05-10T01:37:33.420Z,26.80
2018-05-10T01:40:00.894Z,25.50
2018-05-10T01:42:29.171Z,23.70
2018-05-10T01:44:57.409Z,27.67
2018-05-10T01:47:24.893Z,23.77
2018-05-10T01:49:53.137Z,25.93
2018-05-10T01:52:20.624Z,25.40
2018-05-10T01:54:48.888Z,23.80
2018-05-10T01:57:16.384Z,25.07
2018-05-10T01:59:43.872Z,25.77
2018-05-10T02:02:11.353Z,25.53
2018-05-10T02:04:38.861Z,28.93
2018-05-10T02:07:06.340Z,27.60
2018-05-10T02:09:33.842Z,28.43
2018-05-10T02:12:01.439Z,30.57
2018-05-10T02:14:28.917Z,30.67
2018-05-10T02:16:56.413Z,29.17
2018-05-10T02:19:23.880Z,30.20
2018-05-10T02:21:52.132Z,31.33
2018-05-10T02:24:19.605Z,32.50
2018-05-10T02:26:48.135Z,33.17
2018-05-10T02:29:15.603Z,32.60
2018-05-10T02:31:43.093Z,36.03
2018-05-10T02:34:11.405Z,34.53
2018-05-10T02:36:38.877Z,30.90
2018-05-10T02:39:06.378Z,30.37
2018-05-10T02:41:33.848Z,29.23
2018-05-10T02:44:02.116Z,31.60
2018-05-10T02:46:30.353Z,32.43
2018-05-10T02:48:57.861Z,29.97
2018-05-10T02:51:26.117Z,27.60
2018-05-10T02:53:54.357Z,30.60
2018-05-10T02:56:21.885Z,31.27
2018-05-10T02:58:49.457Z,33.13
2018-05-10T03:01:16.965Z,33.37
2018-05-10T03:03:45.206Z,33.03
2018-05-10T03:06:12.686Z,33.83
2018-05-10T03:08:40.199Z,32.47
2018-05-10T03:11:07.669Z,35.37
2018-05-10T03:13:35.158Z,34.10
2018-05-10T03:16:02.638Z,31.40
2018-05-10T03:18:30.135Z,37.40
2018-05-10T03:20:57.609Z,38.77
2018-05-10T03:23:25.081Z,40.53
2018-05-10T03:25:52.584Z,41.73
2018-05-10T03:28:20.064Z,38.23
2018-05-10T03:30:47.557Z,40.53
2018-05-10T03:33:15.876Z,42.87
2018-05-10T03:35:43.360Z,43.57
2018-05-10T03:38:10.851Z,41.60
2018-05-10T03:40:39.094Z,43.53
2018-05-10T03:43:06.588Z,47.67
2018-05-10T03:45:34.921Z,47.20
2018-05-10T03:48:02.498Z,44.43
2018-05-10T03:50:30.009Z,46.43
2018-05-10T03:52:58.147Z,50.90
2018-05-10T03:55:26.207Z,51.47
2018-05-10T03:57:53.676Z,45.83
2018-05-10T04:00:22.549Z,44.37
2018-05-10T04:06:14.805Z,46.27
2018-05-10T04:08:54.912Z,38.63
2018-05-10T04:11:28.461Z,38.37
2018-05-10T04:13:56.752Z,39.50
2018-05-10T04:16:24.993Z,41.50
2018-05-10T04:18:52.480Z,41.73
2018-05-10T04:21:19.953Z,43.27
2018-05-10T04:23:47.461Z,40.47
2018-05-10T04:26:14.928Z,46.57
2018-05-10T04:28:42.432Z,43.13
2018-05-10T04:31:09.903Z,41.00
2018-05-10T04:33:37.380Z,39.30
2018-05-10T04:36:04.866Z,39.93
2018-05-10T04:38:33.121Z,42.53
2018-05-10T04:41:00.609Z,46.47
2018-05-10T04:43:28.851Z,40.00
2018-05-10T04:45:56.359Z,45.40
2018-05-10T04:48:23.833Z,41.07
2018-05-10T04:50:51.300Z,44.43
2018-05-10T04:53:19.049Z,44.43
2018-05-10T04:55:46.556Z,39.67
2018-05-10T04:58:14.814Z,36.90
2018-05-10T05:00:42.287Z,38.17
2018-05-10T05:03:10.570Z,42.83
2018-05-10T05:05:38.809Z,38.87
2018-05-10T05:08:06.298Z,37.40
2018-05-10T05:10:34.556Z,40.83
2018-05-10T05:13:02.029Z,31.83
2018-05-10T05:15:30.291Z,30.77
2018-05-10T05:17:58.540Z,27.33
2018-05-10T05:20:26.040Z,26.70
2018-05-10T05:22:53.624Z,22.43
2018-05-10T05:25:21.113Z,22.73
2018-05-10T05:27:48.656Z,21.50
2018-05-10T05:30:16.152Z,23.03
2018-05-10T05:32:43.642Z,23.33
2018-05-10T05:35:11.898Z,24.20
2018-05-10T05:37:39.395Z,26.10
2018-05-10T05:40:06.896Z,27.43
2018-05-10T05:42:35.909Z,26.93
2018-05-10T05:45:04.150Z,30.80
2018-05-10T05:47:31.636Z,30.27
2018-05-10T05:49:59.126Z,28.40
2018-05-10T05:52:26.688Z,30.67
2018-05-10T05:54:54.203Z,31.70
2018-05-10T05:57:21.685Z,32.00
2018-05-10T05:59:49.944Z,28.53
2018-05-10T06:02:17.412Z,32.93
2018-05-10T06:04:44.910Z,29.93
2018-05-10T06:07:12.414Z,28.03
2018-05-10T06:09:40.656Z,29.23
2018-05-10T06:12:08.164Z,23.60
2018-05-10T06:14:35.629Z,23.47
2018-05-10T06:17:03.190Z,21.33
2018-05-10T06:19:30.708Z,23.53
2018-05-10T06:21:58.196Z,19.50
2018-05-10T06:24:25.685Z,19.27
2018-05-10T06:26:53.165Z,21.30
2018-05-10T06:29:20.648Z,20.90
2018-05-10T06:31:48.885Z,19.70
2018-05-10T06:34:16.410Z,21.17
2018-05-10T06:36:46.213Z,19.30
2018-05-10T06:39:21.432Z,18.10
2018-05-10T06:41:49.647Z,19.10
2018-05-10T06:44:19.545Z,17.40
2018-05-10T06:46:52.291Z,19.10
2018-05-10T06:49:23.326Z,21.37
2018-05-10T06:51:59.554Z,16.53
2018-05-10T06:54:30.338Z,16.40
2018-05-10T06:57:06.947Z,14.43
2018-05-10T06:59:36.464Z,16.03
2018-05-10T07:02:07.991Z,11.73
2018-05-10T07:04:37.006Z,13.73
2018-05-10T07:07:05.226Z,12.50
2018-05-10T07:09:34.826Z,7.80
2018-05-10T07:12:05.086Z,9.33
2018-05-10T07:14:36.252Z,9.17
2018-05-10T07:17:09.054Z,7.73
2018-05-10T07:19:39.375Z,9.43
2018-05-10T07:22:24.758Z,6.40
2018-05-10T07:25:00.943Z,8.87
2018-05-10T07:27:38.049Z,10.43
2018-05-10T07:30:07.930Z,13.57
2018-05-10T07:32:38.753Z,12.00
2018-05-10T07:35:10.720Z,12.77
2018-05-10T07:37:44.827Z,10.80
2018-05-10T07:40:16.793Z,13.30
2018-05-10T07:42:49.576Z,11.23
2018-05-10T07:45:19.904Z,9.73
2018-05-10T07:47:53.636Z,9.80
2018-05-10T07:50:25.669Z,11.13
2018-05-10T07:52:56.304Z,10.00
2018-05-10T07:58:08.744Z,10.47
2018-05-10T08:00:39.153Z,8.93
2018-05-10T08:03:10.194Z,8.17
2018-05-10T08:05:49.223Z,10.80
2018-05-10T08:08:18.728Z,11.93
2018-05-10T08:10:48.541Z,8.93
2018-05-10T08:13:19.405Z,7.70
2018-05-10T08:15:47.758Z,7.70
2018-05-10T08:18:16.653Z,10.33
2018-05-10T08:20:48.839Z,9.23
2018-05-10T08:23:17.798Z,10.43
2018-05-10T08:25:53.360Z,7.93
2018-05-10T08:28:23.437Z,10.00
2018-05-10T08:30:55.134Z,8.97
2018-05-10T08:33:25.772Z,7.80
2018-05-10T08:35:55.325Z,7.27
2018-05-10T08:38:24.154Z,11.47
2018-05-10T08:41:01.651Z,9.67
2018-05-10T08:43:32.244Z,10.33
2018-05-10T08:46:06.565Z,8.47
2018-05-10T08:48:37.610Z,8.77
2018-05-10T08:51:07.364Z,8.10
2018-05-10T08:53:36.719Z,9.97
2018-05-10T08:56:09.417Z,11.10
2018-05-10T08:58:37.493Z,7.50
2018-05-10T09:01:11.767Z,7.30
2018-05-10T09:03:41.608Z,12.53
2018-05-10T09:06:13.063Z,11.13
2018-05-10T09:11:45.043Z,8.30
2018-05-10T09:14:14.872Z,8.30
2018-05-10T09:16:48.948Z,13.30
2018-05-10T09:19:19.518Z,13.43
2018-05-10T09:21:53.997Z,12.27
2018-05-10T09:24:23.202Z,9.27
2018-05-10T09:35:51.377Z,18.47
2018-05-10T09:38:19.655Z,13.90
2018-05-10T09:40:47.125Z,12.37
2018-05-10T09:43:15.381Z,11.37
2018-05-10T09:45:42.857Z,9.17
2018-05-10T09:48:11.109Z,14.43
2018-05-10T09:50:38.589Z,13.37
2018-05-10T09:53:06.897Z,13.70
2018-05-10T09:55:34.361Z,12.50
2018-05-10T09:58:01.854Z,12.77
2018-05-10T10:00:29.359Z,12.10
2018-05-10T10:02:56.894Z,13.33
2018-05-10T10:05:25.156Z,13.53
2018-05-10T10:07:53.057Z,14.77
2018-05-10T10:10:20.553Z,16.03
2018-05-10T10:12:48.059Z,13.80
2018-05-10T10:15:15.560Z,15.13
2018-05-10T10:17:43.158Z,14.90
2018-05-10T10:20:10.585Z,15.60
2018-05-10T10:22:38.097Z,13.67
2018-05-10T10:25:05.612Z,18.87
2018-05-10T10:27:33.104Z,16.30
2018-05-10T10:30:00.625Z,13.93
2018-05-10T10:32:28.186Z,20.67
2018-05-10T10:34:55.628Z,13.37
2018-05-10T10:37:23.113Z,20.90
2018-05-10T10:39:51.356Z,22.90
2018-05-10T10:42:18.841Z,15.33
2018-05-10T10:44:47.152Z,15.80
2018-05-10T10:47:14.649Z,16.53
2018-05-10T10:49:42.129Z,16.10
2018-05-10T10:52:10.381Z,20.60
2018-05-10T10:54:37.865Z,14.23
2018-05-10T10:57:06.116Z,13.37
2018-05-10T10:59:33.590Z,19.80
2018-05-10T11:02:01.908Z,17.83
2018-05-10T11:04:29.417Z,18.87
2018-05-10T11:06:58.009Z,13.60
2018-05-10T11:09:26.269Z,18.40
2018-05-10T11:11:53.744Z,22.07
2018-05-10T11:14:22.048Z,19.10
2018-05-10T11:16:49.572Z,16.87
2018-05-10T11:19:17.839Z,14.23
2018-05-10T11:21:46.106Z,18.60
2018-05-10T11:24:13.597Z,17.37
2018-05-10T11:26:41.069Z,21.07
2018-05-10T11:29:08.601Z,18.63
2018-05-10T11:31:36.854Z,17.93
2018-05-10T11:34:05.116Z,16.23
2018-05-10T11:36:32.627Z,20.47
2018-05-10T11:39:00.131Z,21.47
2018-05-10T11:41:27.646Z,20.87
2018-05-10T11:43:55.130Z,18.60
2018-05-10T11:46:22.654Z,18.50
2018-05-10T11:48:50.121Z,19.93
2018-05-10T11:51:17.637Z,22.00
2018-05-10T11:53:45.884Z,17.43
2018-05-10T11:56:13.414Z,18.77
2018-05-10T11:58:40.869Z,20.00
2018-05-10T12:01:08.361Z,20.43
2018-05-10T12:03:36.603Z,18.13
2018-05-10T12:06:04.103Z,18.67
2018-05-10T12:08:32.369Z,19.03
2018-05-10T12:10:59.837Z,21.80
2018-05-10T12:13:27.350Z,15.47
2018-05-10T12:15:54.820Z,23.67
2018-05-10T12:18:22.325Z,21.00
2018-05-10T12:20:49.797Z,16.80
2018-05-10T12:23:17.294Z,14.80
2018-05-10T12:25:44.770Z,20.20
2018-05-10T12:28:12.290Z,15.73
2018-05-10T12:30:39.784Z,17.77
2018-05-10T12:33:07.288Z,22.43
2018-05-10T12:35:34.786Z,18.00
2018-05-10T12:38:03.065Z,16.47
2018-05-10T12:40:30.553Z,18.10
2018-05-10T12:42:58.037Z,15.10
2018-05-10T12:45:25.526Z,13.90
2018-05-10T12:47:53.001Z,11.50
2018-05-10T12:50:21.249Z,11.73
2018-05-10T12:52:48.731Z,16.63
2018-05-10T12:55:16.996Z,15.23
2018-05-10T12:57:44.489Z,13.03
2018-05-10T13:00:11.981Z,16.90
2018-05-10T13:02:39.452Z,14.77
2018-05-10T13:05:06.957Z,12.97
2018-05-10T13:07:34.426Z,11.63
2018-05-10T13:10:01.905Z,15.07
2018-05-10T13:12:29.385Z,9.77
2018-05-10T13:14:56.874Z,11.50
2018-05-10T13:17:25.153Z,10.70
2018-05-10T13:19:52.638Z,14.73
2018-05-10T13:22:20.121Z,12.60
2018-05-10T13:24:47.589Z,10.23
2018-05-10T13:27:15.094Z,10.97
2018-05-10T13:29:42.597Z,10.73
2018-05-10T13:32:10.105Z,11.17
2018-05-10T13:34:37.587Z,11.53
2018-05-10T13:37:05.061Z,11.97
2018-05-10T13:39:32.561Z,11.80
2018-05-10T13:42:00.134Z,6.13
2018-05-10T13:44:27.613Z,9.90
2018-05-10T13:46:55.079Z,10.77
2018-05-10T13:49:22.577Z,10.03
2018-05-10T13:51:50.820Z,9.87
2018-05-10T13:54:18.304Z,10.73
2018-05-10T13:56:46.548Z,11.53
2018-05-10T13:59:14.033Z,12.83
2018-05-10T14:01:42.293Z,8.27
2018-05-10T14:04:09.809Z,10.70
2018-05-10T14:06:37.416Z,8.73
2018-05-10T14:09:05.699Z,8.27
2018-05-10T14:11:33.931Z,9.53
2018-05-10T14:14:01.399Z,8.80
2018-05-10T14:16:28.939Z,9.33
2018-05-10T14:18:59.547Z,8.80
2018-05-10T14:21:28.618Z,7.57
2018-05-10T14:23:56.880Z,8.23
2018-05-10T14:26:25.109Z,8.90
2018-05-10T14:28:52.639Z,8.07
2018-05-10T14:31:20.157Z,8.17
2018-05-10T14:33:47.624Z,9.77
2018-05-10T14:36:15.884Z,10.57
2018-05-10T14:38:43.366Z,12.70
2018-05-10T14:41:11.617Z,12.90
2018-05-10T14:43:39.086Z,10.37
2018-05-10T14:46:06.569Z,8.90
2018-05-10T14:48:34.036Z,7.83
2018-05-10T14:51:01.558Z,13.70
2018-05-10T14:53:29.793Z,10.00
2018-05-10T14:55:57.327Z,11.80
2018-05-10T14:58:24.801Z,10.93
2018-05-10T15:00:52.293Z,12.10
2018-05-10T15:03:20.201Z,8.57
2018-05-10T15:05:47.685Z,9.53
2018-05-10T15:08:15.153Z,8.73
2018-05-10T15:10:42.641Z,13.00
2018-05-10T15:13:10.877Z,10.40
2018-05-10T15:15:38.439Z,6.27
2018-05-10T15:18:06.617Z,12.10
2018-05-10T15:20:34.085Z,7.87
2018-05-10T15:23:01.573Z,11.83
2018-05-10T15:25:29.038Z,8.87
2018-05-10T15:27:56.529Z,8.73
2018-05-10T15:30:24.022Z,10.50
2018-05-10T15:32:52.297Z,13.17
2018-05-10T15:35:20.545Z,6.30
2018-05-10T15:37:48.037Z,9.17
2018-05-10T15:40:16.278Z,8.30
2018-05-10T15:42:43.773Z,5.60
2018-05-10T15:45:12.014Z,11.30
2018-05-10T15:47:39.497Z,9.67
2018-05-10T15:50:07.800Z,10.70
2018-05-10T15:52:35.278Z,6.13
2018-05-10T15:55:02.775Z,6.50
2018-05-10T15:57:30.247Z,7.23
2018-05-10T15:59:57.739Z,6.30
2018-05-10T16:02:25.218Z,8.23
2018-05-10T16:04:52.709Z,11.77
2018-05-10T16:07:20.945Z,7.90
2018-05-10T16:09:48.478Z,9.57
2018-05-10T16:12:15.943Z,8.17
2018-05-10T16:14:43.433Z,8.87
2018-05-10T16:17:10.937Z,11.03
2018-05-10T16:19:38.421Z,8.30
2018-05-10T16:22:05.894Z,8.00
2018-05-10T16:24:33.384Z,12.30
2018-05-10T16:27:01.681Z,8.67
2018-05-10T16:29:29.161Z,9.00
2018-05-10T16:31:56.630Z,8.37
2018-05-10T16:34:24.161Z,8.63
2018-05-10T16:36:51.641Z,10.23
2018-05-10T16:39:19.113Z,9.53
2018-05-10T16:41:46.625Z,8.03
2018-05-10T16:44:14.096Z,10.97
2018-05-10T16:46:41.579Z,8.50
2018-05-10T16:49:09.053Z,10.27
2018-05-10T16:51:37.312Z,11.50
2018-05-10T16:54:04.784Z,9.63
2018-05-10T16:56:33.071Z,7.80
2018-05-10T16:59:01.336Z,7.53
2018-05-10T17:01:29.593Z,11.33
2018-05-10T17:03:57.159Z,9.87
2018-05-10T17:06:24.649Z,9.97
2018-05-10T17:08:52.219Z,7.00
2018-05-10T17:11:19.689Z,6.23
2018-05-10T17:13:47.177Z,7.53
2018-05-10T17:16:14.645Z,9.77
2018-05-10T17:18:42.162Z,9.87
2018-05-10T17:21:09.625Z,7.33
2018-05-10T17:23:37.167Z,10.77
2018-05-10T17:26:04.655Z,11.33
2018-05-10T17:28:32.180Z,8.63
2018-05-10T17:30:59.730Z,11.90
2018-05-10T17:33:27.164Z,7.43
2018-05-10T17:35:55.397Z,9.23
2018-05-10T17:38:22.905Z,10.00
2018-05-10T17:40:51.157Z,7.90
2018-05-10T17:43:18.632Z,7.37
2018-05-10T17:45:46.877Z,9.00
2018-05-10T17:48:14.481Z,7.97
2018-05-10T17:50:41.927Z,10.47
2018-05-10T17:53:09.395Z,7.00
2018-05-10T17:55:36.885Z,7.63
2018-05-10T17:58:04.366Z,9.97
2018-05-10T18:00:32.246Z,7.83
2018-05-10T18:03:00.488Z,7.57
2018-05-10T18:05:27.982Z,7.23
2018-05-10T18:07:56.234Z,8.07
2018-05-10T18:10:23.697Z,6.40
2018-05-10T18:12:51.949Z,7.17
2018-05-10T18:15:19.429Z,12.90
2018-05-10T18:17:47.689Z,7.53
2018-05-10T18:20:16.661Z,9.93
2018-05-10T18:22:44.141Z,6.13
2018-05-10T18:25:11.609Z,7.43
2018-05-10T18:27:39.885Z,7.97
2018-05-10T18:30:08.121Z,9.73
2018-05-10T18:32:35.585Z,7.20
2018-05-10T18:35:03.066Z,5.80
2018-05-10T18:37:31.297Z,5.77
2018-05-10T18:39:58.805Z,5.33
2018-05-10T18:42:26.303Z,6.73
2018-05-10T18:44:53.783Z,4.33
2018-05-10T18:47:21.266Z,5.10
2018-05-10T18:49:48.751Z,7.87
2018-05-10T18:52:16.225Z,7.40
2018-05-10T18:54:43.856Z,7.00
2018-05-10T18:57:12.094Z,8.10
2018-05-10T18:59:39.574Z,6.00
2018-05-10T19:02:07.840Z,7.17
2018-05-10T19:04:35.749Z,5.20
2018-05-10T19:07:03.276Z,7.40
2018-05-10T19:09:31.505Z,5.63
2018-05-10T19:11:59.005Z,4.93
2018-05-10T19:14:27.326Z,4.83
2018-05-10T19:16:54.814Z,7.17
2018-05-10T19:19:22.293Z,6.97
2018-05-10T19:21:50.550Z,8.57
2018-05-10T19:24:18.017Z,5.30
2018-05-10T19:26:46.245Z,5.30
2018-05-10T19:29:13.730Z,8.27
2018-05-10T19:31:41.226Z,4.87
2018-05-10T19:34:09.460Z,6.93
2018-05-10T19:36:36.969Z,6.70
2018-05-10T19:39:04.449Z,8.57
2018-05-10T19:41:31.964Z,5.70
2018-05-10T19:44:00.226Z,4.97
2018-05-10T19:46:28.466Z,6.63
2018-05-10T19:48:55.961Z,6.10
2018-05-10T19:51:24.290Z,5.27
2018-05-10T19:53:51.697Z,6.90
2018-05-10T19:56:19.946Z,4.77
2018-05-10T19:58:47.446Z,5.77
2018-05-10T20:01:15.015Z,5.10
2018-05-10T20:03:42.498Z,7.40
2018-05-10T20:06:09.988Z,8.50
2018-05-10T20:08:38.330Z,8.23
2018-05-10T20:11:05.765Z,5.10
2018-05-10T20:13:33.247Z,9.27
2018-05-10T20:16:00.728Z,6.87
2018-05-10T20:18:28.973Z,7.00
2018-05-10T20:20:56.474Z,9.17
2018-05-10T20:23:24.713Z,6.83
2018-05-10T20:25:52.223Z,7.70
2018-05-10T20:28:19.763Z,8.00
2018-05-10T20:30:47.196Z,10.67
2018-05-10T20:33:14.676Z,8.50
2018-05-10T20:35:42.914Z,9.60
2018-05-10T20:38:10.431Z,11.23
2018-05-10T20:40:37.901Z,9.77
2018-05-10T20:43:05.401Z,8.43
2018-05-10T20:45:33.642Z,9.20
2018-05-10T20:48:01.132Z,8.20
2018-05-10T20:50:28.682Z,9.20
2018-05-10T20:52:56.156Z,9.87
2018-05-10T20:55:24.397Z,13.67
2018-05-10T20:57:51.892Z,11.67
2018-05-10T21:00:20.125Z,13.03
2018-05-10T21:02:47.597Z,11.10
2018-05-10T21:05:15.076Z,8.37
2018-05-10T21:07:43.318Z,9.67
2018-05-10T21:10:11.463Z,10.23
2018-05-10T21:12:42.822Z,10.47
2018-05-10T21:15:10.320Z,9.70
2018-05-10T21:17:38.553Z,13.83
2018-05-10T21:20:06.037Z,9.77
2018-05-10T21:22:33.529Z,10.37
2018-05-10T21:25:01.067Z,14.33
2018-05-10T21:27:28.559Z,12.83
2018-05-10T21:29:56.027Z,14.70
2018-05-10T21:32:23.510Z,15.87
2018-05-10T21:34:50.977Z,9.43
2018-05-10T21:37:18.462Z,12.70
2018-05-10T21:39:45.938Z,12.43
2018-05-10T21:42:13.421Z,12.47
2018-05-10T21:44:40.936Z,11.73
2018-05-10T21:47:09.181Z,8.90
2018-05-10T21:49:48.597Z,11.53
2018-05-10T21:52:16.085Z,12.17
2018-05-10T21:54:44.324Z,10.20
2018-05-10T21:57:11.805Z,12.47
2018-05-10T21:59:39.290Z,10.97
2018-05-10T22:02:06.760Z,8.37
2018-05-10T22:04:34.246Z,8.27
2018-05-10T22:07:01.717Z,9.37
2018-05-10T22:09:29.209Z,8.23
2018-05-10T22:11:57.446Z,6.03
2018-05-10T22:14:24.925Z,7.23
2018-05-10T22:16:53.170Z,7.90
2018-05-10T22:19:20.687Z,6.00
2018-05-10T22:21:48.153Z,8.63
2018-05-10T22:24:15.658Z,8.37
2018-05-10T22:26:43.153Z,9.17
2018-05-10T22:29:10.622Z,9.90
2018-05-10T22:31:38.106Z,9.30
2018-05-10T22:34:05.578Z,6.97
2018-05-10T22:36:33.060Z,8.20
2018-05-10T22:39:00.526Z,8.73
2018-05-10T22:41:28.029Z,10.03
2018-05-10T22:43:55.497Z,10.57
2018-05-10T22:46:22.977Z,7.63
2018-05-10T22:48:51.214Z,7.17
2018-05-10T22:51:18.719Z,8.03
2018-05-10T22:53:46.205Z,13.00
2018-05-10T22:56:13.677Z,10.23
2018-05-10T22:58:41.165Z,10.90
2018-05-10T23:01:08.633Z,9.00
2018-05-10T23:03:36.886Z,9.90
2018-05-10T23:06:04.372Z,9.63
2018-05-10T23:08:31.877Z,9.63
2018-05-10T23:10:59.367Z,9.00
2018-05-10T23:13:26.865Z,8.33
2018-05-10T23:15:54.353Z,8.03
2018-05-10T23:18:21.836Z,12.93
2018-05-10T23:20:50.081Z,7.30
2018-05-10T23:23:17.578Z,13.87
2018-05-10T23:25:45.864Z,10.07
2018-05-10T23:28:13.341Z,9.97
2018-05-10T23:30:41.171Z,9.07
2018-05-10T23:33:08.621Z,13.20
2018-05-10T23:35:36.886Z,9.63
2018-05-10T23:38:04.362Z,10.23
2018-05-10T23:40:32.649Z,8.83
2018-05-10T23:43:00.120Z,8.60
2018-05-10T23:45:27.625Z,8.37
2018-05-10T23:47:55.129Z,12.80
2018-05-10T23:50:22.685Z,9.33
2018-05-10T23:52:50.154Z,9.67
2018-05-10T23:55:17.620Z,11.50
2018-05-10T23:57:45.113Z,10.10
